Time;durP1;ratioP1;P1;durP2;ratioP2;P2;SDS_P1;SDS_P2;PMS_P1;PMS_P2;Temp;Humidity;BMP_temperature;BMP_pressure;BME280_temperature;BME280_humidity;BME280_pressure;Samples;Min_cycle;Max_cycle;Signal;HPM_P1;HPM_P2
2023/01/13 00:00:58;;;;;;;16.40;3.65;;;;;;;7.93;100.00;100352.63;6157834;23;20029;-76
2023/01/13 00:03:25;;;;;;;26.45;3.63;;;;;;;7.89;100.00;100349.34;6158639;23;20014;-77
2023/01/13 00:05:51;;;;;;;19.90;3.53;;;;;;;7.85;100.00;100338.13;6132164;23;20022;-77
2023/01/13 00:08:18;;;;;;;25.70;3.90;;;;;;;7.81;100.00;100338.25;6157549;23;20433;-77
2023/01/13 00:10:47;;;;;;;20.05;2.85;;;;;;;7.77;100.00;100332.31;6158524;23;20448;-77
2023/01/13 00:13:14;;;;;;;14.10;2.95;;;;;;;7.72;99.84;100319.63;6156216;23;20047;-76
2023/01/13 00:15:41;;;;;;;16.48;3.70;;;;;;;7.67;99.44;100320.91;6158528;23;20018;-77
2023/01/13 00:18:07;;;;;;;24.23;3.60;;;;;;;7.61;98.60;100325.25;6157295;23;20034;-77
2023/01/13 00:20:34;;;;;;;22.52;3.33;;;;;;;7.60;98.58;100328.34;6158399;23;20018;-77
2023/01/13 00:23:00;;;;;;;21.17;3.65;;;;;;;7.57;97.76;100316.72;6157859;23;20046;-77
2023/01/13 00:25:27;;;;;;;24.08;4.22;;;;;;;7.52;97.70;100319.16;6160003;23;20014;-77
2023/01/13 00:27:53;;;;;;;20.10;3.53;;;;;;;7.49;97.57;100322.66;6132954;23;20045;-77
2023/01/13 00:30:20;;;;;;;18.50;3.83;;;;;;;7.45;97.85;100332.63;6159198;23;20018;-77
2023/01/13 00:32:46;;;;;;;25.52;4.35;;;;;;;7.41;97.79;100337.28;6159756;23;20046;-77
2023/01/13 00:35:12;;;;;;;23.92;3.80;;;;;;;7.37;97.84;100337.41;6158881;23;20449;-77
2023/01/13 00:37:39;;;;;;;31.17;4.38;;;;;;;7.38;97.93;100348.72;6159083;23;20463;-77
2023/01/13 00:40:07;;;;;;;23.35;3.90;;;;;;;7.37;98.22;100345.34;6158816;23;20026;-76
2023/01/13 00:45:18;;;;;;;17.27;2.90;;;;;;;7.32;98.62;100330.72;6159346;23;20014;-77
2023/01/13 00:47:45;;;;;;;23.20;3.53;;;;;;;7.30;98.34;100338.34;6159560;23;20096;-77
2023/01/13 00:50:11;;;;;;;19.92;3.22;;;;;;;7.28;99.10;100324.81;6157246;23;20075;-76
2023/01/13 00:52:37;;;;;;;19.70;3.22;;;;;;;7.25;99.44;100315.06;6159237;23;20049;-77
2023/01/13 00:55:07;;;;;;;22.55;4.70;;;;;;;7.25;99.71;100320.34;6159280;23;20018;-77
2023/01/13 00:57:34;;;;;;;20.95;3.05;;;;;;;7.27;99.61;100310.09;6159569;23;20492;-77
2023/01/13 01:00:00;;;;;;;25.98;3.83;;;;;;;7.26;100.00;100307.84;6159005;23;20025;-77
2023/01/13 01:02:27;;;;;;;20.45;2.90;;;;;;;7.25;99.96;100295.78;6159744;23;20069;-76
2023/01/13 01:04:53;;;;;;;22.20;3.50;;;;;;;7.26;100.00;100297.28;6158942;23;20021;-77
2023/01/13 01:07:20;;;;;;;20.98;3.65;;;;;;;7.28;100.00;100287.00;6159425;23;20025;-77
2023/01/13 01:09:46;;;;;;;21.65;3.65;;;;;;;7.26;100.00;100289.31;6159900;23;20453;-77
2023/01/13 01:12:13;;;;;;;22.65;4.18;;;;;;;7.26;100.00;100297.28;6159146;23;20014;-77
2023/01/13 01:14:39;;;;;;;27.20;3.40;;;;;;;7.26;100.00;100284.03;6133302;23;20022;-77
2023/01/13 01:17:05;;;;;;;17.92;3.20;;;;;;;7.28;100.00;100289.66;6158697;23;20068;-77
2023/01/13 01:19:36;;;;;;;28.40;3.83;;;;;;;7.28;100.00;100289.66;6159169;23;20123;-77
2023/01/13 01:22:02;;;;;;;13.98;3.00;;;;;;;7.28;100.00;100287.72;6158884;23;20021;-77
2023/01/13 01:24:29;;;;;;;25.73;3.75;;;;;;;7.26;100.00;100284.03;6159872;23;20018;-77
2023/01/13 01:26:55;;;;;;;25.38;4.07;;;;;;;7.24;100.00;100276.50;6159073;23;20480;-77
2023/01/13 01:29:22;;;;;;;23.70;3.80;;;;;;;7.25;100.00;100287.84;6159341;23;20077;-77
2023/01/13 01:31:48;;;;;;;19.20;3.05;;;;;;;7.24;100.00;100273.13;6159502;23;20069;-77
2023/01/13 01:34:15;;;;;;;17.10;3.25;;;;;;;7.24;100.00;100281.81;6158190;23;20021;-77
2023/01/13 01:36:41;;;;;;;24.15;3.28;;;;;;;7.25;100.00;100291.22;6159611;23;20045;-77
2023/01/13 01:39:08;;;;;;;19.17;3.72;;;;;;;7.22;100.00;100291.34;6159050;23;20042;-77
2023/01/13 01:41:36;;;;;;;29.00;3.30;;;;;;;7.22;100.00;100296.63;6159524;23;20523;-77
2023/01/13 01:44:40;;;;;;;19.65;4.03;;;;;;;7.24;100.00;100303.00;6158851;23;20049;-77
2023/01/13 01:47:09;;;;;;;16.73;3.80;;;;;;;7.22;100.00;100307.97;6158626;23;20491;-77
2023/01/13 01:49:37;;;;;;;24.98;3.35;;;;;;;7.24;100.00;100315.50;6159069;23;20025;-77
2023/01/13 01:52:19;;;;;;;23.83;3.28;;;;;;;7.23;100.00;100314.00;6158783;23;20467;-77
2023/01/13 01:54:57;;;;;;;22.13;3.85;;;;;;;7.24;100.00;100320.78;6159767;23;20014;-77
2023/01/13 01:57:38;;;;;;;18.58;3.83;;;;;;;7.27;100.00;100314.63;6159514;23;20021;-77
2023/01/13 02:00:05;;;;;;;24.58;3.70;;;;;;;7.26;100.00;100313.91;6132638;23;20054;-76
2023/01/13 02:02:39;;;;;;;25.92;4.22;;;;;;;7.26;100.00;100310.50;6159635;23;20102;-77
2023/01/13 02:05:06;;;;;;;25.33;3.72;;;;;;;7.22;100.00;100292.09;6158246;23;20013;-77
2023/01/13 02:07:33;;;;;;;23.45;3.60;;;;;;;7.21;100.00;100303.09;6159307;23;20018;-77
2023/01/13 02:10:07;;;;;;;29.25;3.80;;;;;;;7.16;100.00;100291.16;6158724;23;20025;-77
2023/01/13 02:12:35;;;;;;;25.63;3.47;;;;;;;7.14;100.00;100285.56;6159310;23;20014;-77
2023/01/13 02:15:09;;;;;;;28.35;3.90;;;;;;;7.13;100.00;100297.31;6158742;23;20045;-77
2023/01/13 02:18:05;;;;;;;31.10;4.25;;;;;;;7.13;100.00;100297.31;6156732;23;20021;-77
2023/01/13 02:21:09;;;;;;;17.13;4.03;;;;;;;7.09;100.00;100296.69;6157191;23;20022;-77
2023/01/13 02:27:20;;;;;;;19.83;3.97;;;;;;;7.11;99.79;100288.31;6158844;23;20018;-77
2023/01/13 02:32:57;;;;;;;30.05;3.67;;;;;;;7.08;98.96;100274.03;6113247;23;20026;-77
2023/01/13 02:35:38;;;;;;;24.77;4.15;;;;;;;7.10;98.64;100279.63;6159698;23;20101;-77
2023/01/13 02:38:08;;;;;;;21.25;3.90;;;;;;;7.10;98.61;100278.91;6159152;23;20033;-77
2023/01/13 02:40:38;;;;;;;27.10;4.32;;;;;;;7.10;98.33;100278.91;6159875;23;20389;-77
2023/01/13 02:45:56;;;;;;;30.48;4.03;;;;;;;7.10;97.82;100258.47;6159077;23;20017;-76
2023/01/13 02:48:24;;;;;;;29.00;4.32;;;;;;;7.12;97.39;100253.47;6132346;23;20373;-77
2023/01/13 02:50:58;;;;;;;24.40;4.15;;;;;;;7.12;97.10;100250.84;6159466;23;20467;-77
2023/01/13 02:53:34;;;;;;;16.27;3.55;;;;;;;7.12;97.00;100269.34;6159559;23;20022;-77
2023/01/13 02:56:05;;;;;;;22.70;4.35;;;;;;;7.12;96.92;100263.31;6158686;23;20014;-77
2023/01/13 02:58:34;;;;;;;24.50;3.55;;;;;;;7.13;96.14;100264.81;6159255;23;20077;-78
2023/01/13 03:01:01;;;;;;;19.77;3.53;;;;;;;7.13;96.02;100262.16;6157701;23;20807;-77
2023/01/13 03:03:30;;;;;;;23.52;3.40;;;;;;;7.12;95.56;100261.41;6159021;23;20018;-77
2023/01/13 03:06:22;;;;;;;27.05;4.65;;;;;;;7.14;96.13;100263.66;6158869;23;20014;-77
2023/01/13 03:09:01;;;;;;;22.58;4.30;;;;;;;7.16;95.52;100269.25;6158981;23;20025;-77
2023/01/13 03:11:37;;;;;;;23.95;3.80;;;;;;;7.17;95.22;100258.22;6159264;23;20021;-78
2023/01/13 03:14:29;;;;;;;20.08;3.28;;;;;;;7.18;95.12;100256.31;6156726;23;20022;-77
2023/01/13 03:17:11;;;;;;;17.90;3.43;;;;;;;7.16;95.01;100245.44;6157888;23;20077;-77
2023/01/13 03:19:54;;;;;;;28.40;3.45;;;;;;;7.13;94.98;100254.97;6159332;23;20014;-77
2023/01/13 03:22:26;;;;;;;22.20;4.53;;;;;;;7.12;94.86;100258.03;6158675;23;20463;-77
2023/01/13 03:25:09;;;;;;;20.98;3.60;;;;;;;7.08;94.94;100252.09;6156763;23;20267;-77
2023/01/13 03:27:52;;;;;;;31.35;4.30;;;;;;;7.03;94.99;100251.47;6158990;23;20013;-77
2023/01/13 03:30:31;;;;;;;15.13;3.60;;;;;;;7.01;95.10;100245.13;6158358;23;20018;-77
2023/01/13 03:33:06;;;;;;;22.23;3.33;;;;;;;7.02;95.11;100243.97;6158729;23;20022;-77
2023/01/13 03:35:39;;;;;;;28.90;3.92;;;;;;;7.00;94.99;100247.03;6159210;23;20073;-77
2023/01/13 03:38:11;;;;;;;17.30;3.28;;;;;;;7.03;95.04;100250.75;6158438;23;20181;-77
2023/01/13 03:41:00;;;;;;;15.02;3.20;;;;;;;7.04;95.34;100265.44;6158843;23;20018;-77
2023/01/13 03:46:43;;;;;;;16.20;3.53;;;;;;;7.08;95.77;100271.38;6157835;23;20109;-77
2023/01/13 03:49:16;;;;;;;18.95;3.13;;;;;;;7.09;95.25;100264.91;6145791;23;20042;-79
2023/01/13 03:51:48;;;;;;;24.45;3.25;;;;;;;7.09;95.31;100258.88;6159050;23;20093;-79
2023/01/13 03:54:17;;;;;;;16.13;3.33;;;;;;;7.08;95.13;100252.84;6132488;23;20014;-76
2023/01/13 03:56:48;;;;;;;15.00;3.15;;;;;;;7.07;95.16;100245.34;6158325;23;20022;-79
2023/01/13 03:59:22;;;;;;;13.00;2.70;;;;;;;7.06;95.60;100249.88;6157958;23;20045;-79
2023/01/13 04:02:05;;;;;;;15.35;2.33;;;;;;;7.06;95.60;100243.84;6158656;23;20525;-76
2023/01/13 04:04:41;;;;;;;18.75;2.80;;;;;;;7.07;95.26;100250.63;6158689;23;20025;-77
2023/01/13 04:07:19;;;;;;;15.30;2.72;;;;;;;7.05;95.30;100251.06;6158041;23;20018;-77
2023/01/13 04:09:55;;;;;;;12.90;2.83;;;;;;;7.01;95.64;100242.47;6158993;23;20022;-77
2023/01/13 04:12:59;;;;;;;19.27;2.25;;;;;;;7.00;95.46;100233.06;6158393;23;20334;-77
2023/01/13 04:15:22;;;;;;;16.52;2.92;;;;;;;6.97;95.07;100244.50;6157428;23;20014;-77
2023/01/13 04:17:50;;;;;;;18.45;2.45;;;;;;;6.97;95.33;100244.50;6157803;23;20055;-77
2023/01/13 04:20:17;;;;;;;13.57;2.42;;;;;;;6.96;95.21;100241.09;6158296;23;20411;-77
2023/01/13 04:22:43;;;;;;;12.63;2.42;;;;;;;6.97;94.79;100255.09;6158762;23;20017;-77
2023/01/13 04:25:10;;;;;;;13.95;2.35;;;;;;;6.93;94.54;100255.19;6157927;23;20348;-77
2023/01/13 04:27:37;;;;;;;12.65;2.50;;;;;;;6.93;94.64;100257.09;6158629;23;20042;-77
2023/01/13 04:30:04;;;;;;;9.50;2.17;;;;;;;6.91;94.16;100249.59;6156916;23;20064;-77
2023/01/13 04:32:31;;;;;;;13.88;2.30;;;;;;;6.92;94.10;100251.06;6158518;23;20014;-77
2023/01/13 04:34:57;;;;;;;16.80;2.30;;;;;;;6.88;93.53;100268.22;6158018;23;20014;-77
2023/01/13 04:37:24;;;;;;;8.82;1.98;;;;;;;6.87;93.60;100261.44;6158234;23;20361;-77
2023/01/13 04:39:50;;;;;;;8.32;2.08;;;;;;;6.87;93.71;100270.13;6158278;23;20045;-77
2023/01/13 04:42:17;;;;;;;11.35;1.75;;;;;;;6.86;92.93;100266.00;6157521;23;20018;-77
2023/01/13 04:44:43;;;;;;;13.98;1.90;;;;;;;6.82;93.07;100257.41;6156792;23;20404;-77
2023/01/13 04:47:10;;;;;;;6.82;1.15;;;;;;;6.79;92.20;100253.00;6157677;23;20022;-77
2023/01/13 04:49:36;;;;;;;12.23;2.92;;;;;;;6.80;91.70;100259.75;6158334;23;20022;-78
2023/01/13 04:52:05;;;;;;;7.65;1.73;;;;;;;6.77;91.87;100247.38;6157597;23;20464;-77
2023/01/13 04:54:32;;;;;;;7.68;1.73;;;;;;;6.74;91.58;100248.25;6158630;23;20065;-76
2023/01/13 04:56:58;;;;;;;5.22;1.63;;;;;;;6.71;91.23;100253.63;6157277;23;20024;-77
2023/01/13 04:59:25;;;;;;;4.50;1.48;;;;;;;6.67;90.99;100257.13;6158444;23;20022;-77
2023/01/13 05:01:51;;;;;;;4.82;1.33;;;;;;;6.65;91.17;100248.13;6158065;23;20018;-77
2023/01/13 05:04:18;;;;;;;7.53;1.67;;;;;;;6.69;91.00;100248.75;6157984;23;20284;-77
2023/01/13 05:06:44;;;;;;;9.07;1.58;;;;;;;6.74;91.32;100256.19;6158479;23;20018;-77
2023/01/13 05:09:12;;;;;;;15.55;1.85;;;;;;;6.79;91.65;100249.63;6158658;23;20456;-77
2023/01/13 05:17:11;;;;;;;15.13;1.60;;;;;;;6.76;91.38;100237.97;6158670;23;20054;-77
2023/01/13 05:19:39;;;;;;;6.40;1.42;;;;;;;6.76;91.51;100240.63;6159621;23;20364;-77
2023/01/13 05:27:35;;;;;;;16.15;1.42;;;;;;;6.77;92.04;100231.53;6159406;23;20060;-77
2023/01/13 05:30:02;;;;;;;7.20;1.33;;;;;;;6.75;92.02;100220.63;6158972;23;20027;-77
2023/01/13 05:32:29;;;;;;;12.10;1.80;;;;;;;6.75;92.64;100227.81;6159706;23;20033;-77
2023/01/13 05:34:56;;;;;;;7.90;1.75;;;;;;;6.75;92.77;100228.56;6159270;23;20054;-76
2023/01/13 05:37:23;;;;;;;14.13;1.48;;;;;;;6.78;93.07;100224.31;6159448;23;20022;-76
2023/01/13 05:45:20;;;;;;;9.73;1.83;;;;;;;6.76;93.78;100234.59;6159448;23;20018;-76
2023/01/13 05:47:46;;;;;;;7.03;1.52;;;;;;;6.73;94.35;100240.72;6159786;23;20077;-76
2023/01/13 05:50:13;;;;;;;11.68;2.05;;;;;;;6.67;93.93;100243.91;6158763;23;20025;-76
2023/01/13 05:52:40;;;;;;;9.90;2.13;;;;;;;6.69;94.33;100249.50;6159686;23;20045;-76
2023/01/13 05:55:06;;;;;;;6.72;1.50;;;;;;;6.69;94.08;100240.84;6158171;23;20396;-78
2023/01/13 05:57:33;;;;;;;5.78;1.67;;;;;;;6.66;94.18;100247.72;6159405;23;20053;-79
2023/01/13 05:59:59;;;;;;;9.55;1.60;;;;;;;6.64;93.92;100250.03;6158660;23;20025;-79
2023/01/13 06:02:26;;;;;;;18.48;2.17;;;;;;;6.63;93.76;100245.16;6159457;23;20474;-78
2023/01/13 06:04:53;;;;;;;10.80;2.35;;;;;;;6.61;93.68;100247.50;6159039;23;20025;-78
2023/01/13 06:07:19;;;;;;;18.25;2.38;;;;;;;6.60;94.07;100251.31;6159041;23;20460;-78
2023/01/13 06:09:46;;;;;;;9.80;1.95;;;;;;;6.57;94.11;100242.31;6158932;23;20452;-78
2023/01/13 06:12:12;;;;;;;14.63;2.03;;;;;;;6.56;94.16;100237.44;6158597;23;20044;-78
2023/01/13 06:14:39;;;;;;;12.70;2.00;;;;;;;6.54;93.91;100243.16;6159436;23;20042;-78
2023/01/13 06:17:11;;;;;;;13.18;2.05;;;;;;;6.52;93.66;100244.72;6158485;23;20408;-78
2023/01/13 06:19:38;;;;;;;9.35;1.77;;;;;;;6.52;93.93;100248.13;6159246;23;20072;-78
2023/01/13 06:22:15;;;;;;;7.90;1.45;;;;;;;6.53;93.69;100248.88;6158565;23;20018;-78
2023/01/13 06:24:44;;;;;;;7.88;1.67;;;;;;;6.56;93.37;100248.75;6158850;23;20069;-80
2023/01/13 06:27:11;;;;;;;13.18;2.15;;;;;;;6.63;93.50;100251.19;6132090;23;20464;-78
2023/01/13 06:29:38;;;;;;;9.98;1.92;;;;;;;6.67;93.13;100246.53;6159417;23;20025;-78
2023/01/13 06:32:10;;;;;;;15.05;1.60;;;;;;;6.70;92.75;100252.91;6158861;23;20424;-78
2023/01/13 06:34:37;;;;;;;11.85;1.88;;;;;;;6.74;92.64;100248.25;6159339;23;20100;-78
2023/01/13 06:37:04;;;;;;;13.95;2.03;;;;;;;6.75;92.57;100249.72;6159174;23;20017;-79
2023/01/13 06:39:34;;;;;;;14.52;1.90;;;;;;;6.76;92.41;100253.09;6159648;23;20049;-79
2023/01/13 06:44:49;;;;;;;17.15;2.63;;;;;;;6.78;92.34;100262.09;6159068;23;20025;-79
2023/01/13 06:47:16;;;;;;;10.15;1.85;;;;;;;6.81;91.98;100260.47;6158754;23;20362;-78
2023/01/13 06:49:42;;;;;;;14.25;1.95;;;;;;;6.79;92.04;100268.13;6158876;23;20025;-77
2023/01/13 06:52:09;;;;;;;11.15;2.15;;;;;;;6.81;91.87;100258.59;6159436;23;20014;-78
2023/01/13 06:54:35;;;;;;;10.38;2.30;;;;;;;6.82;91.85;100264.63;6159599;23;20018;-78
2023/01/13 06:57:02;;;;;;;12.18;2.83;;;;;;;6.82;91.93;100273.28;6159564;23;20033;-76
2023/01/13 06:59:29;;;;;;;15.75;2.65;;;;;;;6.84;91.87;100264.94;6159953;23;20025;-76
2023/01/13 07:01:55;;;;;;;11.88;2.20;;;;;;;6.85;92.01;100269.78;6159708;23;20025;-77
2023/01/13 07:04:22;;;;;;;15.30;2.60;;;;;;;6.84;92.43;100264.94;6160201;23;20069;-77
2023/01/13 07:06:49;;;;;;;13.85;2.35;;;;;;;6.84;92.39;100265.66;6159688;23;20049;-78
2023/01/13 07:09:15;;;;;;;11.75;2.40;;;;;;;6.85;92.79;100256.56;6157956;23;20018;-80
2023/01/13 07:11:42;;;;;;;9.25;2.47;;;;;;;6.85;92.60;100269.78;6160143;23;20102;-80
2023/01/13 07:16:53;;;;;;;11.18;2.25;;;;;;;6.89;92.61;100280.28;6159290;23;20077;-79
2023/01/13 07:19:22;;;;;;;13.55;2.15;;;;;;;6.88;92.95;100270.84;6133806;23;20022;-79
2023/01/13 07:21:51;;;;;;;12.02;2.17;;;;;;;6.88;92.69;100274.25;6132627;23;20021;-79
2023/01/13 07:24:18;;;;;;;13.73;2.72;;;;;;;6.90;92.19;100285.16;6133303;23;20017;-79
2023/01/13 07:26:45;;;;;;;15.80;2.63;;;;;;;6.93;92.03;100291.50;6160070;23;20423;-79
2023/01/13 07:29:11;;;;;;;16.92;2.47;;;;;;;6.94;91.99;100293.72;6159597;23;20042;-79
2023/01/13 07:31:38;;;;;;;14.43;2.42;;;;;;;6.95;91.89;100295.19;6157745;23;20014;-83
2023/01/13 07:34:06;;;;;;;16.55;2.45;;;;;;;6.98;90.91;100275.81;6132938;23;20049;-79
2023/01/13 07:36:32;;;;;;;23.88;3.15;;;;;;;7.01;90.75;100296.16;6159444;23;20448;-79
2023/01/13 07:38:59;;;;;;;12.45;2.28;;;;;;;7.01;90.47;100296.16;6159895;23;20025;-80
2023/01/13 07:44:11;;;;;;;14.02;2.25;;;;;;;7.05;89.85;100303.97;6159628;23;20014;-78
2023/01/13 07:46:38;;;;;;;16.30;2.58;;;;;;;7.07;89.75;100292.97;6159998;23;20022;-78
2023/01/13 07:49:07;;;;;;;8.73;2.22;;;;;;;7.07;89.73;100298.28;6159195;23;20022;-77
2023/01/13 07:51:37;;;;;;;15.30;2.42;;;;;;;7.07;89.59;100287.69;6158827;23;20077;-77
2023/01/13 07:54:05;;;;;;;16.00;2.83;;;;;;;7.10;88.99;100300.06;6158757;23;20022;-78
2023/01/13 07:56:31;;;;;;;15.20;2.67;;;;;;;7.16;88.17;100314.25;6159343;23;20057;-77
2023/01/13 07:58:59;;;;;;;11.45;2.53;;;;;;;7.16;87.74;100314.25;6158610;23;20014;-78
2023/01/13 08:01:26;;;;;;;13.65;2.70;;;;;;;7.18;87.72;100312.66;6159204;23;20014;-79
2023/01/13 08:03:55;;;;;;;12.50;2.65;;;;;;;7.19;87.35;100310.75;6158817;23;20433;-78
2023/01/13 08:06:21;;;;;;;13.93;2.47;;;;;;;7.18;87.39;100311.91;6158532;23;20018;-78
2023/01/13 08:08:49;;;;;;;26.50;3.28;;;;;;;7.19;86.84;100316.06;6158886;23;20022;-77
2023/01/13 08:11:15;;;;;;;12.35;2.45;;;;;;;7.19;86.90;100305.47;6159201;23;20393;-77
2023/01/13 08:13:42;;;;;;;12.82;2.92;;;;;;;7.20;86.83;100299.72;6158909;23;20014;-77
2023/01/13 08:16:11;;;;;;;10.77;2.67;;;;;;;7.24;86.70;100307.53;6158417;23;20022;-77
2023/01/13 08:18:38;;;;;;;13.40;2.28;;;;;;;7.25;86.78;100295.78;6158602;23;20014;-77
2023/01/13 08:21:12;;;;;;;14.80;2.47;;;;;;;7.27;87.05;100310.09;6157943;23;20020;-77
2023/01/13 08:23:40;;;;;;;16.90;2.40;;;;;;;7.30;86.67;100305.84;6159014;23;20018;-77
2023/01/13 08:26:10;;;;;;;17.77;3.25;;;;;;;7.31;86.60;100307.31;6158364;23;20029;-77
2023/01/13 08:28:39;;;;;;;12.82;2.35;;;;;;;7.35;86.72;100329.13;6158895;23;20025;-77
2023/01/13 08:31:07;;;;;;;19.00;3.25;;;;;;;7.36;86.48;100310.19;6131807;23;20433;-77
2023/01/13 08:33:34;;;;;;;14.38;2.67;;;;;;;7.40;nan;100320.66;6158787;23;20097;-77
2023/01/13 08:36:06;;;;;;;20.30;2.80;;;;;;;7.41;86.52;100321.41;6156624;23;40583;-76
2023/01/13 08:38:34;;;;;;;14.45;2.30;;;;;;;7.44;87.26;100344.38;6158645;23;20018;-76
2023/01/13 08:41:06;;;;;;;13.52;2.97;;;;;;;7.41;88.13;100338.03;6158532;23;20014;-76
2023/01/13 08:43:33;;;;;;;21.92;3.45;;;;;;;7.39;88.79;100339.63;6159336;23;20014;-76
2023/01/13 08:46:03;;;;;;;13.50;1.90;;;;;;;7.36;88.83;100351.81;6159387;23;20017;-76
2023/01/13 08:48:30;;;;;;;18.85;2.63;;;;;;;7.32;89.18;100353.81;6158627;23;20044;-76
2023/01/13 08:51:05;;;;;;;16.52;2.80;;;;;;;7.30;90.29;100356.16;6158512;23;20022;-76
2023/01/13 08:53:32;;;;;;;15.05;2.83;;;;;;;7.28;90.48;100366.44;6159815;23;20377;-76
2023/01/13 08:55:58;;;;;;;12.73;2.72;;;;;;;7.27;91.45;100360.38;6159254;23;20022;-77
2023/01/13 08:58:25;;;;;;;12.13;2.28;;;;;;;7.25;91.58;100369.91;6159733;23;20018;-76
2023/01/13 09:00:52;;;;;;;17.45;3.17;;;;;;;7.22;92.25;100376.81;6159439;23;20042;-76
2023/01/13 09:03:18;;;;;;;13.63;2.50;;;;;;;7.18;92.07;100375.47;6158825;23;20049;-76
2023/01/13 09:05:45;;;;;;;12.60;2.08;;;;;;;7.14;93.03;100380.13;6159596;23;20515;-77
2023/01/13 09:08:11;;;;;;;9.32;2.28;;;;;;;7.13;93.26;100381.28;6159380;23;20018;-77
2023/01/13 09:10:39;;;;;;;14.80;2.55;;;;;;;7.13;94.08;100392.59;6159643;23;20018;-76
2023/01/13 09:13:11;;;;;;;13.23;3.13;;;;;;;7.13;93.89;100389.22;6159190;23;20097;-76
2023/01/13 09:15:41;;;;;;;15.77;2.97;;;;;;;7.12;93.91;100399.06;6159413;23;20046;-76
2023/01/13 09:18:07;;;;;;;21.10;3.17;;;;;;;7.12;93.78;100393.78;6158046;23;20021;-76
2023/01/13 09:20:34;;;;;;;12.57;3.20;;;;;;;7.12;93.51;100406.25;6159681;23;20433;-76
2023/01/13 09:23:03;;;;;;;17.60;2.65;;;;;;;7.11;94.20;100407.44;6132789;23;20461;-77
2023/01/13 09:25:30;;;;;;;13.27;2.67;;;;;;;7.10;94.09;100411.97;6159501;23;20029;-77
2023/01/13 09:27:56;;;;;;;16.98;2.97;;;;;;;7.08;94.10;100405.63;6159133;23;20017;-77
2023/01/13 09:30:23;;;;;;;12.85;2.63;;;;;;;7.05;94.62;100409.13;6159434;23;20021;-78
2023/01/13 09:34:58;;;;;;;6.30;2.25;;;;;;;7.00;94.75;100411.13;6158596;23;20080;-78
2023/01/13 09:35:36;;;;;;;19.15;3.00;;;;;;;6.99;94.91;100407.00;6159227;23;20006;-77
2023/01/13 09:38:04;;;;;;;12.95;2.72;;;;;;;6.98;95.20;100412.69;6159049;23;20032;-77
2023/01/13 09:40:31;;;;;;;18.58;2.67;;;;;;;6.97;94.95;100409.31;6159409;23;20014;-76
2023/01/13 09:45:58;;;;;;;22.17;2.75;;;;;;;6.99;95.10;100420.22;6159128;23;20385;-77
2023/01/13 09:48:33;;;;;;;16.00;2.38;;;;;;;7.02;94.98;100418.63;6158559;23;20045;-76
2023/01/13 09:51:19;;;;;;;16.00;2.50;;;;;;;7.08;94.70;100424.16;6159134;23;20073;-77
2023/01/13 09:54:11;;;;;;;19.35;2.63;;;;;;;7.12;94.51;100432.75;6157831;23;20460;-77
2023/01/13 09:56:38;;;;;;;12.98;2.63;;;;;;;7.16;93.82;100433.38;6158720;23;20444;-77
2023/01/13 09:59:10;;;;;;;15.77;2.28;;;;;;;7.19;93.62;100429.88;6159211;23;20018;-77
2023/01/13 10:01:51;;;;;;;16.02;3.30;;;;;;;7.21;93.64;100433.56;6159189;23;20089;-80
2023/01/13 10:04:18;;;;;;;15.48;2.38;;;;;;;7.23;93.20;100422.56;6159480;23;20014;-78
2023/01/13 10:06:52;;;;;;;14.07;2.25;;;;;;;7.24;92.79;100431.97;6159615;23;20029;-79
2023/01/13 10:09:32;;;;;;;16.67;2.92;;;;;;;7.26;93.15;100422.44;6159430;23;20046;-76
2023/01/13 10:14:53;;;;;;;17.55;2.60;;;;;;;7.32;94.20;100431.34;6159586;23;20014;-77
2023/01/13 10:17:32;;;;;;;13.25;2.40;;;;;;;7.30;94.18;100428.38;6158199;23;20041;-77
2023/01/13 10:20:21;;;;;;;12.55;2.38;;;;;;;7.31;94.11;100450.31;6158922;23;20085;-77
2023/01/13 10:22:55;;;;;;;18.50;2.80;;;;;;;7.28;93.97;100454.53;6159621;23;20389;-77
2023/01/13 10:25:40;;;;;;;15.45;2.58;;;;;;;7.29;94.20;100461.31;6159574;23;20516;-78
2023/01/13 10:28:10;;;;;;;18.73;2.83;;;;;;;7.31;93.77;100464.28;6159051;23;20021;-77
2023/01/13 10:30:42;;;;;;;16.60;2.78;;;;;;;7.33;93.73;100458.56;6158683;23;20022;-78
2023/01/13 10:33:17;;;;;;;18.88;2.60;;;;;;;7.38;93.25;100466.00;6159139;23;20092;-77
2023/01/13 10:35:58;;;;;;;18.13;2.80;;;;;;;7.42;93.41;100482.53;6159244;23;20010;-77
2023/01/13 10:38:44;;;;;;;15.40;3.38;;;;;;;7.45;92.34;100486.22;6159268;23;20361;-77
2023/01/13 10:41:11;;;;;;;27.50;2.88;;;;;;;7.48;92.78;100480.09;6132813;23;20100;-78
2023/01/13 10:43:37;;;;;;;15.02;2.60;;;;;;;7.48;92.68;100475.53;6159062;23;20014;-78
2023/01/13 10:46:09;;;;;;;16.60;2.55;;;;;;;7.47;93.05;100484.66;6157867;23;20512;-78
2023/01/13 10:48:38;;;;;;;18.27;2.70;;;;;;;7.47;92.58;100489.19;6159371;23;20022;-78
2023/01/13 10:51:27;;;;;;;16.67;2.42;;;;;;;7.46;92.73;100480.50;6158898;23;20516;-78
2023/01/13 10:53:57;;;;;;;12.93;2.10;;;;;;;7.47;92.87;100487.28;6158770;23;20018;-76
2023/01/13 10:56:27;;;;;;;13.88;3.60;;;;;;;7.49;92.46;100479.66;6159112;23;20497;-77
2023/01/13 10:59:08;;;;;;;21.08;2.70;;;;;;;7.55;91.91;100490.47;6158907;23;20014;-76
2023/01/13 11:01:35;;;;;;;14.40;2.45;;;;;;;7.60;91.26;100492.56;6158713;23;20046;-76
2023/01/13 11:04:25;;;;;;;13.23;2.38;;;;;;;7.62;91.51;100491.00;6158649;23;20010;-79
2023/01/13 11:06:52;;;;;;;16.73;2.65;;;;;;;7.65;90.85;100498.09;6159003;23;20487;-79
2023/01/13 11:09:21;;;;;;;17.58;2.88;;;;;;;7.69;90.54;100511.22;6159254;23;20449;-75
2023/01/13 11:11:54;;;;;;;17.20;2.78;;;;;;;7.71;90.50;100498.31;6159047;23;20108;-80
2023/01/13 11:14:43;;;;;;;13.45;2.45;;;;;;;7.72;90.73;100499.78;6132235;23;20022;-75
2023/01/13 11:17:32;;;;;;;12.85;2.58;;;;;;;7.72;90.36;100507.72;6159500;23;20413;-75
2023/01/13 11:20:16;;;;;;;13.63;2.20;;;;;;;7.72;90.05;100513.03;6158851;23;20025;-76
2023/01/13 11:22:46;;;;;;;13.80;2.65;;;;;;;7.74;90.26;100513.34;6160304;23;20026;-76
2023/01/13 11:25:40;;;;;;;12.97;2.60;;;;;;;7.73;90.23;100521.72;6159566;23;20453;-76
2023/01/13 11:28:13;;;;;;;13.80;1.80;;;;;;;7.76;89.28;100513.66;6158887;23;20404;-76
2023/01/13 11:30:49;;;;;;;14.50;2.47;;;;;;;7.79;88.95;100515.47;6132453;23;20026;-76
2023/01/13 11:33:29;;;;;;;6.20;1.67;;;;;;;7.85;88.70;100524.38;6159269;23;20010;-76
2023/01/13 11:36:14;;;;;;;15.90;2.47;;;;;;;7.92;87.64;100521.50;6158951;23;20045;-77
2023/01/13 11:38:43;;;;;;;19.08;2.25;;;;;;;7.96;87.04;100524.81;6159297;23;20022;-76
2023/01/13 11:41:46;;;;;;;10.73;2.30;;;;;;;8.02;87.08;100528.38;6158800;23;20077;-76
2023/01/13 11:44:19;;;;;;;10.23;2.08;;;;;;;8.06;86.17;100524.88;6158270;23;20065;-76
2023/01/13 11:46:50;;;;;;;8.90;2.35;;;;;;;8.11;84.76;100537.59;6132944;23;20036;-77
2023/01/13 11:49:28;;;;;;;10.50;2.30;;;;;;;8.13;85.67;100536.00;6133101;23;20459;-76
2023/01/13 11:52:14;;;;;;;11.98;2.20;;;;;;;8.17;85.11;100530.59;6132570;23;20428;-77
2023/01/13 11:54:58;;;;;;;12.60;2.38;;;;;;;8.19;84.70;100555.50;6132957;23;20022;-77
2023/01/13 11:57:30;;;;;;;8.23;2.10;;;;;;;8.21;84.09;100542.56;6159042;23;20069;-77
2023/01/13 12:00:13;;;;;;;14.40;2.13;;;;;;;8.23;84.04;100561.44;6161646;23;20117;-77
2023/01/13 12:03:19;;;;;;;8.10;2.17;;;;;;;8.25;84.61;100550.41;6159404;23;20525;-76
2023/01/13 12:06:02;;;;;;;13.93;2.50;;;;;;;8.25;84.37;100545.09;6068468;23;20023;-76
2023/01/13 12:08:34;;;;;;;8.65;2.17;;;;;;;8.23;83.74;100558.06;6068669;23;20019;-76
2023/01/13 12:11:17;;;;;;;9.95;1.67;;;;;;;8.25;84.33;100559.09;6068771;23;20023;-77
2023/01/13 12:14:19;;;;;;;13.70;2.38;;;;;;;8.26;83.69;100567.81;6067623;23;20027;-77
2023/01/13 12:16:49;;;;;;;13.35;2.63;;;;;;;8.26;83.56;100562.50;6067520;23;20076;-77
2023/01/13 12:19:26;;;;;;;12.60;2.30;;;;;;;8.27;83.55;100564.72;6067760;23;20026;-77
2023/01/13 12:21:59;;;;;;;8.45;1.70;;;;;;;8.30;83.51;100573.75;6067017;23;20038;-77
2023/01/13 12:24:36;;;;;;;14.30;2.08;;;;;;;8.30;83.13;100573.75;6068080;23;20059;-77
2023/01/13 12:27:28;;;;;;;8.60;2.08;;;;;;;8.30;83.25;100569.19;6067161;23;20019;-76
2023/01/13 12:29:58;;;;;;;10.10;2.17;;;;;;;8.32;83.04;100571.41;6067296;23;20563;-77